createdAt,value
2019-05-26T00:02:43.558Z,5.03
2019-05-26T00:07:47.350Z,6.67
2019-05-26T00:12:50.639Z,5.80
2019-05-26T00:17:56.106Z,7.70
2019-05-26T00:22:59.693Z,7.53
2019-05-26T00:28:03.990Z,9.37
2019-05-26T00:33:08.937Z,9.30
2019-05-26T00:38:16.947Z,7.97
2019-05-26T00:43:20.200Z,6.13
2019-05-26T00:48:23.479Z,5.23
2019-05-26T00:53:26.762Z,6.23
2019-05-26T00:58:30.331Z,7.53
2019-05-26T01:03:33.607Z,9.47
2019-05-26T01:08:36.888Z,7.70
2019-05-26T01:13:40.168Z,6.60
2019-05-26T01:18:43.447Z,6.30
2019-05-26T01:23:46.727Z,7.17
2019-05-26T01:28:50.252Z,8.50
2019-05-26T01:33:53.783Z,5.93
2019-05-26T01:38:57.789Z,7.10
2019-05-26T01:44:01.066Z,5.80
2019-05-26T01:49:04.418Z,6.90
2019-05-26T01:54:07.691Z,8.40
2019-05-26T01:59:10.979Z,7.60
2019-05-26T02:04:14.504Z,7.20
2019-05-26T02:09:18.020Z,5.97
2019-05-26T02:14:21.295Z,7.70
2019-05-26T02:19:24.574Z,9.10
2019-05-26T02:24:28.105Z,7.27
2019-05-26T02:29:31.381Z,8.37
2019-05-26T02:34:34.665Z,8.53
2019-05-26T02:39:37.955Z,11.90
2019-05-26T02:44:41.405Z,11.13
2019-05-26T02:49:45.109Z,7.20
2019-05-26T02:54:48.394Z,11.80
2019-05-26T02:59:51.685Z,11.40
2019-05-26T03:04:55.054Z,8.87
2019-05-26T03:09:58.409Z,9.23
2019-05-26T03:15:02.273Z,12.20
2019-05-26T03:20:05.975Z,11.20
2019-05-26T03:25:09.846Z,11.30
2019-05-26T03:30:13.546Z,13.20
2019-05-26T03:35:16.839Z,16.67
2019-05-26T03:40:20.141Z,13.37
2019-05-26T03:45:35.499Z,14.37
2019-05-26T03:50:38.868Z,14.00
2019-05-26T03:55:42.122Z,16.03
2019-05-26T04:00:45.419Z,17.70
2019-05-26T04:05:48.960Z,16.07
2019-05-26T04:10:52.525Z,15.00
2019-05-26T04:15:55.820Z,21.67
2019-05-26T04:20:59.123Z,17.03
2019-05-26T04:26:02.420Z,19.07
2019-05-26T04:31:05.967Z,24.37
2019-05-26T04:36:09.266Z,21.27
2019-05-26T04:41:12.565Z,25.80
2019-05-26T04:46:16.103Z,19.67
2019-05-26T04:51:19.422Z,21.53
2019-05-26T04:56:22.969Z,22.80
2019-05-26T05:01:26.502Z,24.37
2019-05-26T05:06:29.908Z,27.00
2019-05-26T05:11:33.188Z,25.67
2019-05-26T05:16:36.732Z,24.17
2019-05-26T05:21:40.202Z,23.30
2019-05-26T05:26:43.442Z,23.17
2019-05-26T05:31:46.987Z,25.67
2019-05-26T05:36:50.283Z,26.67
2019-05-26T05:41:53.580Z,24.17
2019-05-26T05:46:56.873Z,23.63
2019-05-26T05:52:00.241Z,22.27
2019-05-26T05:57:08.447Z,25.53
2019-05-26T06:02:09.453Z,25.07
2019-05-26T06:07:12.750Z,27.73
2019-05-26T06:12:16.070Z,22.03
2019-05-26T06:17:19.622Z,25.27
2019-05-26T06:22:23.172Z,25.60
2019-05-26T06:27:26.617Z,29.20
2019-05-26T06:32:29.929Z,28.27
2019-05-26T06:37:33.220Z,28.60
2019-05-26T06:42:36.531Z,26.97
2019-05-26T06:47:40.076Z,30.63
2019-05-26T06:52:43.614Z,29.93
2019-05-26T06:57:47.150Z,27.37
2019-05-26T07:02:50.781Z,27.87
2019-05-26T07:07:54.140Z,26.07
2019-05-26T07:12:57.683Z,23.10
2019-05-26T07:18:01.037Z,25.37
2019-05-26T07:23:06.202Z,20.93
2019-05-26T07:28:09.617Z,21.60
2019-05-26T07:33:13.226Z,19.43
2019-05-26T07:38:16.778Z,22.20
2019-05-26T07:43:20.082Z,19.87
2019-05-26T07:48:23.630Z,20.83
2019-05-26T07:53:26.934Z,17.97
2019-05-26T07:58:30.468Z,16.40
2019-05-26T08:03:33.759Z,12.77
2019-05-26T08:08:37.317Z,13.67
2019-05-26T08:13:40.618Z,12.60
2019-05-26T08:18:44.160Z,11.60
2019-05-26T08:23:47.429Z,11.93
2019-05-26T08:28:51.049Z,12.07
2019-05-26T08:33:54.577Z,11.37
2019-05-26T08:38:58.115Z,10.77
2019-05-26T08:44:01.648Z,10.20
2019-05-26T08:49:05.225Z,8.23
2019-05-26T08:54:08.523Z,9.37
2019-05-26T08:59:11.850Z,9.43
2019-05-26T09:04:15.397Z,7.67
2019-05-26T09:09:18.911Z,6.47
2019-05-26T09:14:25.412Z,6.07
2019-05-26T09:19:27.700Z,5.60
2019-05-26T09:24:31.569Z,5.10
2019-05-26T09:29:34.862Z,5.43
2019-05-26T09:34:38.154Z,6.13
2019-05-26T09:39:41.425Z,6.37
2019-05-26T09:44:45.867Z,4.50
2019-05-26T09:49:49.630Z,3.30
2019-05-26T09:54:52.917Z,4.07
2019-05-26T09:59:56.363Z,4.37
2019-05-26T10:04:59.893Z,5.27
2019-05-26T10:10:04.895Z,5.73
2019-05-26T10:15:08.660Z,4.10
2019-05-26T10:20:12.270Z,3.90
2019-05-26T10:25:16.391Z,7.17
2019-05-26T10:30:19.739Z,4.80
2019-05-26T10:35:23.259Z,7.23
2019-05-26T10:40:26.961Z,6.33
2019-05-26T10:45:34.142Z,9.17
2019-05-26T10:50:35.796Z,6.80
2019-05-26T10:55:39.314Z,5.83
2019-05-26T11:00:42.858Z,6.83
2019-05-26T11:05:47.654Z,4.73
2019-05-26T11:10:50.849Z,6.20
2019-05-26T11:15:54.134Z,4.63
2019-05-26T11:20:57.415Z,3.50
2019-05-26T11:26:00.850Z,3.17
2019-05-26T11:31:04.250Z,4.03
2019-05-26T11:36:07.539Z,2.53
2019-05-26T11:41:11.058Z,3.67
2019-05-26T11:46:16.603Z,4.97
2019-05-26T11:51:19.587Z,1.87
2019-05-26T11:56:23.118Z,1.60
2019-05-26T12:01:26.656Z,1.80
2019-05-26T12:06:29.929Z,2.17
2019-05-26T12:11:33.471Z,2.33
2019-05-26T12:16:37.125Z,2.47
2019-05-26T12:21:40.420Z,2.40
2019-05-26T12:26:43.768Z,1.40
2019-05-26T12:31:47.043Z,3.53
2019-05-26T12:36:50.350Z,2.07
2019-05-26T12:41:53.870Z,2.90
2019-05-26T12:46:57.477Z,4.33
2019-05-26T12:52:00.761Z,3.47
2019-05-26T12:57:04.040Z,2.10
2019-05-26T13:02:07.643Z,3.43
2019-05-26T13:07:10.932Z,2.23
2019-05-26T13:12:14.204Z,3.70
2019-05-26T13:17:17.485Z,5.37
2019-05-26T13:22:20.768Z,2.37
2019-05-26T13:27:24.369Z,3.17
2019-05-26T13:32:27.852Z,3.33
2019-05-26T13:37:31.422Z,3.63
2019-05-26T13:42:34.785Z,2.67
2019-05-26T13:47:38.126Z,2.80
2019-05-26T13:52:41.656Z,3.13
2019-05-26T13:57:44.943Z,4.47
2019-05-26T14:02:48.691Z,6.00
2019-05-26T14:07:52.023Z,5.03
2019-05-26T14:12:55.245Z,2.93
2019-05-26T14:17:59.832Z,3.10
2019-05-26T14:23:03.911Z,2.30
2019-05-26T14:28:08.425Z,2.87
2019-05-26T14:33:11.727Z,5.80
2019-05-26T14:38:15.606Z,3.47
2019-05-26T14:43:18.887Z,2.77
2019-05-26T14:48:22.405Z,5.77
2019-05-26T14:53:25.933Z,3.93
2019-05-26T14:58:29.453Z,3.23
2019-05-26T15:03:32.724Z,3.67
2019-05-26T15:08:36.262Z,5.20
2019-05-26T15:13:39.771Z,4.47
2019-05-26T15:18:43.289Z,5.63
2019-05-26T15:23:46.856Z,5.03
2019-05-26T15:28:50.379Z,3.80
2019-05-26T15:33:53.937Z,7.17
2019-05-26T15:38:57.428Z,5.27
2019-05-26T15:44:00.843Z,5.73
2019-05-26T15:49:04.379Z,6.23
2019-05-26T15:54:07.665Z,8.13
2019-05-26T15:59:11.013Z,4.83
2019-05-26T16:04:14.220Z,6.33
2019-05-26T16:09:17.503Z,5.00
2019-05-26T16:14:20.786Z,3.73
2019-05-26T16:19:24.120Z,5.23
2019-05-26T16:24:27.412Z,4.57
2019-05-26T16:29:30.685Z,4.87
2019-05-26T16:34:33.972Z,2.90
2019-05-26T16:39:37.634Z,5.30
2019-05-26T16:44:41.021Z,2.87
2019-05-26T16:49:44.554Z,4.10
2019-05-26T16:54:47.841Z,3.60
2019-05-26T16:59:51.126Z,3.73
2019-05-26T17:04:54.475Z,3.80
2019-05-26T17:09:57.765Z,4.33
2019-05-26T17:15:01.051Z,4.13
2019-05-26T17:20:06.276Z,6.37
2019-05-26T17:25:09.938Z,5.80
2019-05-26T17:30:13.719Z,6.63
2019-05-26T17:35:17.127Z,4.40
2019-05-26T17:40:22.829Z,3.83
2019-05-26T17:45:26.378Z,3.60
2019-05-26T17:50:29.890Z,5.70
2019-05-26T17:55:33.298Z,4.03
2019-05-26T18:00:37.261Z,3.23
2019-05-26T18:05:40.540Z,3.20
2019-05-26T18:10:44.089Z,4.73
2019-05-26T18:15:47.618Z,3.77
2019-05-26T18:20:50.963Z,3.17
2019-05-26T18:25:54.236Z,4.77
2019-05-26T18:30:57.521Z,5.93
2019-05-26T18:36:01.082Z,3.33
2019-05-26T18:41:04.629Z,12.50
2019-05-26T18:46:07.934Z,5.03
2019-05-26T18:51:11.233Z,5.93
2019-05-26T18:56:14.766Z,3.10
2019-05-26T19:01:18.063Z,2.97
2019-05-26T19:06:21.342Z,4.50
2019-05-26T19:11:24.709Z,4.13
2019-05-26T19:16:28.229Z,2.90
2019-05-26T19:21:31.523Z,5.70
2019-05-26T19:26:35.228Z,3.97
2019-05-26T19:31:38.521Z,5.47
2019-05-26T19:36:41.814Z,5.70
2019-05-26T19:41:45.115Z,4.83
2019-05-26T19:46:52.654Z,3.67
2019-05-26T19:51:53.878Z,4.50
2019-05-26T19:56:57.417Z,5.17
2019-05-26T20:02:17.320Z,4.70
2019-05-26T20:07:06.491Z,5.63
2019-05-26T20:12:10.145Z,5.03
2019-05-26T20:17:13.495Z,3.93
2019-05-26T20:22:17.044Z,6.40
2019-05-26T20:27:20.695Z,4.40
2019-05-26T20:32:23.979Z,6.00
2019-05-26T20:37:27.264Z,6.00
2019-05-26T20:42:30.553Z,4.70
2019-05-26T20:47:33.841Z,3.47
2019-05-26T20:52:37.128Z,2.50
2019-05-26T20:57:40.645Z,4.43
2019-05-26T21:02:44.165Z,3.03
2019-05-26T21:07:48.799Z,2.10
2019-05-26T21:12:52.082Z,3.27
2019-05-26T21:17:55.371Z,2.90
2019-05-26T21:22:58.938Z,3.20
2019-05-26T21:28:02.454Z,3.27
2019-05-26T21:33:06.188Z,3.33
2019-05-26T21:38:09.727Z,4.13
2019-05-26T21:43:13.026Z,3.20
2019-05-26T21:48:16.320Z,4.27
2019-05-26T21:53:19.642Z,5.00
2019-05-26T21:58:22.890Z,6.37
2019-05-26T22:03:26.326Z,5.60
2019-05-26T22:08:29.873Z,7.00
2019-05-26T22:13:33.152Z,5.37
2019-05-26T22:18:36.445Z,6.67
2019-05-26T22:23:39.745Z,5.33
2019-05-26T22:28:43.284Z,5.10
2019-05-26T22:33:46.807Z,7.67
2019-05-26T22:38:50.104Z,4.03
2019-05-26T22:43:53.432Z,7.30
2019-05-26T22:48:56.742Z,7.40
2019-05-26T22:54:00.043Z,4.30
2019-05-26T22:59:03.563Z,4.07
2019-05-26T23:04:06.862Z,3.67
2019-05-26T23:09:10.492Z,6.17
2019-05-26T23:14:14.021Z,3.13
2019-05-26T23:19:19.905Z,4.13
2019-05-26T23:24:22.670Z,4.27
2019-05-26T23:29:26.223Z,2.77
2019-05-26T23:34:32.469Z,3.53
2019-05-26T23:39:35.991Z,3.40
2019-05-26T23:44:41.150Z,4.70
2019-05-26T23:49:44.694Z,6.63
2019-05-26T23:54:48.004Z,4.43
2019-05-26T23:59:51.548Z,3.80
